createdAt,value
2022-10-10T00:14:14.369Z,2.9
2022-10-10T00:29:23.842Z,3.9
2022-10-10T00:44:33.313Z,3.2
2022-10-10T00:59:42.704Z,2.4
2022-10-10T01:14:52.091Z,2.9
2022-10-10T01:30:01.613Z,2.4
2022-10-10T01:45:12.756Z,3
2022-10-10T02:00:22.285Z,2.7
2022-10-10T02:15:31.749Z,2.6
2022-10-10T02:30:41.521Z,3.3
2022-10-10T02:45:50.541Z,3.6
2022-10-10T03:00:59.893Z,2.8
2022-10-10T03:16:09.274Z,3.1
2022-10-10T03:31:20.099Z,3.1
2022-10-10T03:46:29.768Z,2.4
2022-10-10T04:01:39.596Z,2.5
2022-10-10T04:16:49.959Z,3.3
2022-10-10T04:31:58.947Z,2.4
2022-10-10T04:47:08.200Z,2.6
2022-10-10T05:02:17.641Z,2.8
2022-10-10T05:17:27.274Z,2.7
2022-10-10T05:32:36.974Z,2.9
2022-10-10T05:47:46.257Z,3.2
2022-10-10T06:02:56.483Z,3.2
2022-10-10T06:18:06.329Z,3
2022-10-10T06:33:15.704Z,2.6
2022-10-10T06:48:25.297Z,2.9
2022-10-10T07:03:34.949Z,3.4
2022-10-10T07:18:44.964Z,2.5
2022-10-10T07:33:54.435Z,2.5
2022-10-10T07:49:04.222Z,3.2
2022-10-10T08:04:14.712Z,2.6
2022-10-10T08:21:55.426Z,3.7
2022-10-10T08:37:07.181Z,2.7
2022-10-10T08:52:16.611Z,4
2022-10-10T09:07:26.553Z,3.2
2022-10-10T09:22:35.977Z,4.3
2022-10-10T09:37:48.356Z,3.1
2022-10-10T09:52:58.115Z,2.9
2022-10-10T10:08:08.659Z,3.6
2022-10-10T10:23:19.295Z,2.8
2022-10-10T10:38:28.956Z,3.6
2022-10-10T10:53:38.778Z,3.5
2022-10-10T11:08:48.996Z,2.9
2022-10-10T11:23:58.644Z,2.7
2022-10-10T11:39:15.215Z,3
2022-10-10T11:54:28.839Z,2.9
2022-10-10T12:09:39.211Z,3.1
2022-10-10T12:24:50.446Z,2.9
2022-10-10T12:39:59.658Z,3.4
2022-10-10T12:55:08.877Z,3
2022-10-10T13:10:17.990Z,2.9
2022-10-10T13:25:28.553Z,2.3
2022-10-10T13:40:37.668Z,3.1
2022-10-10T13:55:46.304Z,2.6
2022-10-10T14:10:56.158Z,2.6
2022-10-10T14:26:05.824Z,2.8
2022-10-10T14:41:14.684Z,2.8
2022-10-10T14:57:10.088Z,2.7
2022-10-10T15:12:20.115Z,3.1
2022-10-10T15:30:26.123Z,2.8
2022-10-10T15:45:56.284Z,3.3
2022-10-10T16:01:07.360Z,3.9
2022-10-10T16:18:51.178Z,3.6
2022-10-10T16:34:02.154Z,3.2
2022-10-10T16:49:10.836Z,3
2022-10-10T17:04:19.749Z,3.2
2022-10-10T17:19:28.912Z,4.3
2022-10-10T17:34:38.493Z,4.7
2022-10-10T17:49:47.764Z,4.8
2022-10-10T18:04:57.063Z,5.9
2022-10-10T18:20:06.556Z,7
2022-10-10T18:35:16.153Z,7.3
2022-10-10T18:50:25.350Z,8.2
2022-10-10T19:05:35.328Z,5.3
2022-10-10T19:20:44.621Z,3.5
2022-10-10T19:35:53.789Z,2.9
2022-10-10T19:51:02.884Z,3.3
2022-10-10T20:06:15.515Z,2.7
2022-10-10T20:21:25.099Z,2.7
2022-10-10T20:36:34.646Z,2.5
2022-10-10T20:51:44.274Z,3
2022-10-10T21:06:53.536Z,2.3
2022-10-10T21:22:02.842Z,2.9
2022-10-10T21:37:14.683Z,3.7
2022-10-10T21:52:25.257Z,2.9
2022-10-10T22:07:34.356Z,3.6
2022-10-10T22:22:43.726Z,3.3
2022-10-10T22:37:53.601Z,3.3
2022-10-10T22:53:02.702Z,3
2022-10-10T23:08:12.024Z,3.9
2022-10-10T23:23:21.221Z,3.5
2022-10-10T23:38:30.417Z,2.6
2022-10-10T23:53:39.321Z,3.1
